createdAt,value
2022-08-26T00:02:07.133Z,4.50
2022-08-26T00:04:35.260Z,4.80
2022-08-26T00:07:05.335Z,4.87
2022-08-26T00:09:37.268Z,4.70
2022-08-26T00:12:07.623Z,5.37
2022-08-26T00:14:37.008Z,4.70
2022-08-26T00:17:05.309Z,4.73
2022-08-26T00:19:36.710Z,4.37
2022-08-26T00:22:06.303Z,5.20
2022-08-26T00:24:34.291Z,4.93
2022-08-26T00:27:02.185Z,4.63
2022-08-26T00:29:32.010Z,4.50
2022-08-26T00:32:04.083Z,4.40
2022-08-26T00:34:32.162Z,4.83
2022-08-26T00:37:00.398Z,5.03
2022-08-26T00:39:29.767Z,4.50
2022-08-26T00:41:57.822Z,5.20
2022-08-26T00:44:25.800Z,5.10
2022-08-26T00:46:58.293Z,5.50
2022-08-26T00:49:34.314Z,5.63
2022-08-26T00:52:05.294Z,4.50
2022-08-26T00:54:45.239Z,4.70
2022-08-26T00:57:16.464Z,5.10
2022-08-26T00:59:46.716Z,4.83
2022-08-26T01:02:20.217Z,4.93
2022-08-26T01:04:55.617Z,4.50
2022-08-26T01:07:25.316Z,5.17
2022-08-26T01:09:55.130Z,4.47
2022-08-26T01:12:24.675Z,4.77
2022-08-26T01:14:53.543Z,4.80
2022-08-26T01:17:21.520Z,5.00
2022-08-26T01:19:53.307Z,4.90
2022-08-26T01:22:28.613Z,4.73
2022-08-26T01:24:59.783Z,5.03
2022-08-26T01:27:32.422Z,4.83
2022-08-26T01:30:02.181Z,5.80
2022-08-26T01:32:32.806Z,5.03
2022-08-26T01:35:01.861Z,5.10
2022-08-26T01:37:35.475Z,4.80
2022-08-26T01:40:10.632Z,4.73
2022-08-26T01:42:38.605Z,4.80
2022-08-26T01:45:12.214Z,5.33
2022-08-26T01:47:40.676Z,5.30
2022-08-26T01:50:15.756Z,5.13
2022-08-26T01:52:57.048Z,4.73
2022-08-26T01:55:32.263Z,4.90
2022-08-26T01:58:06.122Z,5.07
2022-08-26T02:00:35.472Z,5.27
2022-08-26T02:03:22.313Z,5.70
2022-08-26T02:05:55.569Z,5.30
2022-08-26T02:08:27.358Z,5.27
2022-08-26T02:10:56.921Z,5.37
2022-08-26T02:13:30.064Z,4.67
2022-08-26T02:15:58.969Z,5.83
2022-08-26T02:18:28.723Z,5.13
2022-08-26T02:20:57.739Z,5.40
2022-08-26T02:23:25.739Z,5.93
2022-08-26T02:26:00.996Z,5.23
2022-08-26T02:28:34.032Z,5.07
2022-08-26T02:31:02.749Z,5.10
2022-08-26T02:33:31.144Z,5.23
2022-08-26T02:36:00.185Z,5.20
2022-08-26T02:38:29.412Z,5.53
2022-08-26T02:40:58.911Z,5.40
2022-08-26T02:43:31.335Z,4.80
2022-08-26T02:46:02.002Z,5.47
2022-08-26T02:48:30.877Z,5.30
2022-08-26T02:51:00.694Z,5.40
2022-08-26T02:53:31.886Z,5.10
2022-08-26T02:56:05.555Z,5.50
2022-08-26T02:58:33.554Z,5.17
2022-08-26T03:01:02.536Z,5.13
2022-08-26T03:03:33.565Z,5.60
2022-08-26T03:06:02.084Z,5.70
2022-08-26T03:08:30.066Z,5.57
2022-08-26T03:13:53.699Z,5.07
2022-08-26T03:16:21.710Z,5.70
2022-08-26T03:18:52.434Z,5.23
2022-08-26T03:21:21.020Z,5.80
2022-08-26T03:23:49.590Z,5.33
2022-08-26T03:26:18.101Z,5.80
2022-08-26T03:28:59.941Z,5.43
2022-08-26T03:31:29.499Z,5.47
2022-08-26T03:33:59.523Z,5.70
2022-08-26T03:36:28.716Z,5.53
2022-08-26T03:38:57.324Z,5.40
2022-08-26T03:41:25.478Z,5.67
2022-08-26T03:43:53.545Z,5.57
2022-08-26T03:46:21.529Z,5.50
2022-08-26T03:48:50.936Z,5.50
2022-08-26T03:51:20.415Z,5.60
2022-08-26T03:53:49.133Z,5.57
2022-08-26T03:56:17.130Z,6.20
2022-08-26T03:58:45.948Z,6.00
2022-08-26T04:01:16.379Z,5.50
2022-08-26T04:04:00.184Z,5.40
2022-08-26T04:06:33.160Z,5.97
2022-08-26T04:09:03.062Z,5.50
2022-08-26T04:11:34.262Z,5.70
2022-08-26T04:14:06.175Z,5.13
2022-08-26T04:16:35.252Z,8.93
2022-08-26T04:19:03.523Z,11.50
2022-08-26T04:21:33.321Z,7.37
2022-08-26T04:24:03.575Z,11.10
2022-08-26T04:26:36.933Z,8.00
2022-08-26T04:29:09.723Z,6.83
2022-08-26T04:31:39.840Z,6.40
2022-08-26T04:34:08.265Z,6.80
2022-08-26T04:36:40.976Z,6.10
2022-08-26T04:39:12.246Z,6.10
2022-08-26T04:41:40.493Z,6.40
2022-08-26T04:44:08.676Z,6.27
2022-08-26T04:46:39.947Z,6.57
2022-08-26T04:49:12.577Z,12.57
2022-08-26T04:51:41.880Z,7.20
2022-08-26T04:54:12.061Z,6.50
2022-08-26T04:56:42.285Z,6.33
2022-08-26T04:59:16.801Z,6.67
2022-08-26T05:01:47.905Z,6.00
2022-08-26T05:04:18.977Z,7.27
2022-08-26T05:06:48.605Z,36.73
2022-08-26T05:09:18.362Z,21.63
2022-08-26T05:11:48.622Z,10.00
2022-08-26T05:14:21.932Z,8.40
2022-08-26T05:16:50.343Z,7.30
2022-08-26T05:19:19.583Z,7.20
2022-08-26T05:21:49.443Z,8.80
2022-08-26T05:24:18.337Z,7.30
2022-08-26T05:26:47.194Z,7.47
2022-08-26T05:29:16.067Z,6.43
2022-08-26T05:31:44.793Z,7.30
2022-08-26T05:34:13.318Z,6.70
2022-08-26T05:36:42.138Z,6.70
2022-08-26T05:39:11.865Z,6.77
2022-08-26T05:41:42.143Z,6.67
2022-08-26T05:44:11.921Z,8.97
2022-08-26T05:46:41.007Z,9.93
2022-08-26T05:49:12.768Z,8.30
2022-08-26T05:51:43.010Z,7.20
2022-08-26T05:54:12.816Z,6.97
2022-08-26T05:56:41.403Z,6.97
2022-08-26T05:59:14.796Z,7.10
2022-08-26T06:01:44.136Z,6.70
2022-08-26T06:04:12.813Z,6.77
2022-08-26T06:06:42.701Z,6.53
2022-08-26T06:12:05.580Z,6.07
2022-08-26T06:14:33.511Z,6.53
2022-08-26T06:17:01.842Z,6.83
2022-08-26T06:19:32.758Z,6.73
2022-08-26T06:22:23.586Z,7.07
2022-08-26T06:25:10.668Z,7.53
2022-08-26T06:27:38.690Z,7.13
2022-08-26T06:30:07.711Z,6.80
2022-08-26T06:32:35.921Z,7.13
2022-08-26T06:35:03.937Z,6.83
2022-08-26T06:37:31.889Z,6.73
2022-08-26T06:40:04.691Z,12.00
2022-08-26T06:42:33.115Z,8.77
2022-08-26T06:45:01.990Z,7.33
2022-08-26T06:47:31.241Z,6.70
2022-08-26T06:50:02.108Z,6.67
2022-08-26T06:52:30.113Z,7.17
2022-08-26T06:54:58.031Z,7.40
2022-08-26T06:57:28.527Z,6.73
2022-08-26T06:59:59.698Z,7.70
2022-08-26T07:02:28.510Z,6.87
2022-08-26T07:04:56.994Z,6.67
2022-08-26T07:07:24.974Z,7.10
2022-08-26T07:09:53.050Z,6.97
2022-08-26T07:12:22.214Z,6.90
2022-08-26T07:14:51.955Z,6.90
2022-08-26T07:17:21.859Z,6.47
2022-08-26T07:19:53.614Z,6.63
2022-08-26T07:22:21.642Z,6.97
2022-08-26T07:24:49.735Z,6.27
2022-08-26T07:27:18.084Z,6.90
2022-08-26T07:29:46.910Z,6.23
2022-08-26T07:32:17.699Z,11.33
2022-08-26T07:34:46.342Z,9.07
2022-08-26T07:37:14.382Z,7.73
2022-08-26T07:39:43.229Z,5.37
2022-08-26T07:42:14.052Z,6.07
2022-08-26T07:44:42.814Z,6.17
2022-08-26T07:47:24.983Z,6.00
2022-08-26T07:49:56.702Z,5.63
2022-08-26T07:52:27.199Z,5.93
2022-08-26T07:54:56.404Z,6.07
2022-08-26T07:57:24.585Z,5.37
2022-08-26T07:59:55.043Z,6.13
2022-08-26T08:02:24.896Z,9.67
2022-08-26T08:04:53.424Z,6.87
2022-08-26T08:07:38.283Z,6.47
2022-08-26T08:10:11.374Z,6.37
2022-08-26T08:12:39.674Z,6.33
2022-08-26T08:15:09.097Z,6.20
2022-08-26T08:17:37.920Z,6.70
2022-08-26T08:20:07.499Z,6.03
2022-08-26T08:22:37.040Z,5.93
2022-08-26T08:25:06.271Z,6.33
2022-08-26T08:27:36.829Z,6.37
2022-08-26T08:30:05.979Z,6.33
2022-08-26T08:32:34.067Z,7.40
2022-08-26T08:35:10.833Z,6.43
2022-08-26T08:37:41.372Z,6.13
2022-08-26T08:40:11.461Z,5.60
2022-08-26T08:42:46.909Z,6.27
2022-08-26T08:45:18.928Z,6.47
2022-08-26T08:47:54.101Z,5.60
2022-08-26T08:50:28.249Z,6.03
2022-08-26T08:53:16.537Z,6.27
2022-08-26T08:55:56.729Z,5.70
2022-08-26T08:58:28.809Z,5.93
2022-08-26T09:01:02.947Z,5.80
2022-08-26T09:03:43.376Z,5.82
2022-08-26T09:06:17.374Z,6.37
2022-08-26T09:08:50.428Z,6.43
2022-08-26T09:11:20.078Z,6.00
2022-08-26T09:13:51.088Z,6.87
2022-08-26T09:16:25.166Z,6.60
2022-08-26T09:19:04.935Z,6.47
2022-08-26T09:21:33.608Z,6.28
2022-08-26T09:24:05.172Z,6.30
2022-08-26T09:26:45.348Z,6.85
2022-08-26T09:32:19.302Z,6.38
2022-08-26T09:34:57.687Z,5.95
2022-08-26T09:37:38.240Z,5.88
2022-08-26T09:40:34.770Z,5.70
2022-08-26T09:43:15.820Z,5.68
2022-08-26T09:45:50.602Z,5.60
2022-08-26T09:48:34.813Z,5.43
2022-08-26T09:51:07.200Z,5.47
2022-08-26T09:53:50.480Z,5.38
2022-08-26T09:56:27.705Z,5.07
2022-08-26T09:58:56.870Z,5.35
2022-08-26T10:01:33.616Z,5.30
2022-08-26T10:04:10.957Z,4.90
2022-08-26T10:06:42.618Z,5.03
2022-08-26T10:09:14.411Z,5.32
2022-08-26T10:11:48.172Z,5.35
2022-08-26T10:14:22.132Z,5.32
2022-08-26T10:16:55.954Z,5.68
2022-08-26T10:19:41.843Z,5.43
2022-08-26T10:22:25.098Z,5.00
2022-08-26T10:24:56.938Z,5.07
2022-08-26T10:27:34.308Z,4.78
2022-08-26T10:30:08.560Z,4.90
2022-08-26T10:32:41.284Z,5.72
2022-08-26T10:35:13.011Z,5.10
2022-08-26T10:37:45.729Z,5.47
2022-08-26T10:40:17.670Z,4.90
2022-08-26T10:42:53.028Z,5.25
2022-08-26T10:45:25.558Z,5.07
2022-08-26T10:48:01.319Z,5.18
2022-08-26T10:50:37.430Z,5.05
2022-08-26T10:53:12.343Z,4.72
2022-08-26T10:55:48.499Z,4.93
2022-08-26T10:58:36.823Z,4.70
2022-08-26T11:01:41.948Z,4.68
2022-08-26T11:04:22.550Z,4.63
2022-08-26T11:07:10.933Z,4.97
2022-08-26T11:09:47.861Z,5.35
2022-08-26T11:12:49.223Z,5.57
2022-08-26T11:15:51.038Z,4.57
2022-08-26T11:18:39.596Z,4.25
2022-08-26T11:21:45.961Z,5.00
2022-08-26T11:24:47.770Z,5.13
2022-08-26T11:27:53.957Z,4.15
2022-08-26T11:30:56.964Z,5.28
2022-08-26T11:33:58.130Z,4.72
2022-08-26T11:36:59.619Z,4.57
2022-08-26T11:39:36.874Z,5.13
2022-08-26T11:42:23.131Z,4.55
2022-08-26T11:44:51.318Z,4.45
2022-08-26T11:47:29.284Z,4.78
2022-08-26T11:50:18.172Z,5.30
2022-08-26T11:52:57.158Z,4.75
2022-08-26T11:55:25.370Z,4.28
2022-08-26T11:57:56.218Z,4.88
2022-08-26T12:00:33.461Z,4.38
2022-08-26T12:03:05.989Z,4.75
2022-08-26T12:05:43.313Z,4.95
2022-08-26T12:08:17.367Z,4.60
2022-08-26T12:10:45.881Z,4.45
2022-08-26T12:13:23.824Z,7.90
2022-08-26T12:15:56.371Z,10.02
2022-08-26T12:18:29.356Z,4.70
2022-08-26T12:21:02.481Z,4.70
2022-08-26T12:23:41.286Z,4.60
2022-08-26T12:26:12.549Z,4.68
2022-08-26T12:28:46.087Z,4.63
2022-08-26T12:31:25.849Z,4.07
2022-08-26T12:33:55.230Z,5.63
2022-08-26T12:36:28.699Z,6.30
2022-08-26T12:38:58.493Z,4.40
2022-08-26T12:41:47.482Z,4.22
2022-08-26T12:44:39.162Z,4.47
2022-08-26T12:47:13.290Z,5.28
2022-08-26T12:49:42.973Z,4.20
2022-08-26T12:52:30.839Z,5.13
2022-08-26T12:55:01.208Z,5.18
2022-08-26T12:57:31.859Z,4.90
2022-08-26T13:00:28.338Z,4.82
2022-08-26T13:02:56.570Z,5.18
2022-08-26T13:05:28.636Z,4.63
2022-08-26T13:08:17.353Z,4.60
2022-08-26T13:10:47.837Z,5.30
2022-08-26T13:13:15.713Z,5.07
2022-08-26T13:15:44.713Z,4.45
2022-08-26T13:18:12.663Z,5.55
2022-08-26T13:20:44.779Z,5.38
2022-08-26T13:23:13.288Z,5.18
2022-08-26T13:25:42.802Z,4.90
2022-08-26T13:28:10.732Z,4.72
2022-08-26T13:30:39.110Z,4.75
2022-08-26T13:33:09.383Z,4.45
2022-08-26T13:35:40.549Z,4.95
2022-08-26T13:38:14.580Z,5.00
2022-08-26T13:41:00.422Z,4.70
2022-08-26T13:43:28.592Z,4.57
2022-08-26T13:45:56.503Z,9.45
2022-08-26T13:48:25.040Z,6.50
2022-08-26T13:50:53.814Z,4.75
2022-08-26T13:53:22.259Z,5.32
2022-08-26T13:55:50.272Z,4.93
2022-08-26T13:58:19.654Z,4.88
2022-08-26T14:00:47.652Z,4.95
2022-08-26T14:03:16.476Z,4.40
2022-08-26T14:05:44.634Z,4.00
2022-08-26T14:08:12.643Z,4.15
2022-08-26T14:10:42.024Z,5.07
2022-08-26T14:13:10.074Z,5.90
2022-08-26T14:15:39.682Z,4.28
2022-08-26T14:18:10.993Z,4.03
2022-08-26T14:20:39.792Z,4.10
2022-08-26T14:23:20.661Z,4.53
2022-08-26T14:25:48.851Z,6.57
2022-08-26T14:28:16.870Z,5.50
2022-08-26T14:30:50.293Z,4.90
2022-08-26T14:33:20.075Z,5.05
2022-08-26T14:35:49.109Z,4.43
2022-08-26T14:38:17.915Z,4.57
2022-08-26T14:40:46.402Z,4.15
2022-08-26T14:43:16.095Z,5.00
2022-08-26T14:45:47.876Z,5.38
2022-08-26T14:48:16.147Z,4.32
2022-08-26T14:50:44.145Z,4.68
2022-08-26T14:53:29.675Z,4.70
2022-08-26T14:55:57.671Z,16.83
2022-08-26T14:58:25.636Z,7.45
2022-08-26T15:01:04.517Z,5.35
2022-08-26T15:03:32.589Z,5.22
2022-08-26T15:06:00.629Z,4.38
2022-08-26T15:08:28.628Z,4.93
2022-08-26T15:10:56.566Z,4.70
2022-08-26T15:13:24.530Z,4.65
2022-08-26T15:15:52.573Z,4.70
2022-08-26T15:18:22.097Z,4.78
2022-08-26T15:20:50.321Z,4.43
2022-08-26T15:23:18.317Z,4.88
2022-08-26T15:25:46.771Z,5.43
2022-08-26T15:28:14.720Z,5.18
2022-08-26T15:30:43.096Z,4.32
2022-08-26T15:33:15.095Z,5.10
2022-08-26T15:35:45.328Z,4.97
2022-08-26T15:38:13.585Z,5.15
2022-08-26T15:40:41.696Z,4.93
2022-08-26T15:43:27.869Z,5.30
2022-08-26T15:45:56.862Z,5.28
2022-08-26T15:48:25.389Z,4.97
2022-08-26T15:50:56.428Z,5.03
2022-08-26T15:53:25.591Z,5.13
2022-08-26T15:55:56.333Z,5.13
2022-08-26T15:58:26.384Z,4.65
2022-08-26T16:00:55.946Z,4.60
2022-08-26T16:03:24.461Z,4.38
2022-08-26T16:05:54.043Z,4.30
2022-08-26T16:08:22.339Z,4.80
2022-08-26T16:10:51.300Z,5.38
2022-08-26T16:13:20.643Z,4.97
2022-08-26T16:15:48.787Z,4.47
2022-08-26T16:18:17.240Z,4.80
2022-08-26T16:20:57.398Z,4.68
2022-08-26T16:23:40.261Z,4.70
2022-08-26T16:26:12.220Z,4.53
2022-08-26T16:28:40.513Z,4.72
2022-08-26T16:31:09.520Z,4.28
2022-08-26T16:33:38.884Z,5.00
2022-08-26T16:36:07.977Z,4.75
2022-08-26T16:38:37.522Z,5.07
2022-08-26T16:41:08.173Z,4.90
2022-08-26T16:43:36.877Z,4.40
2022-08-26T16:46:07.132Z,3.30
2022-08-26T16:48:38.183Z,2.93
2022-08-26T16:51:06.231Z,3.07
2022-08-26T16:53:34.616Z,3.13
2022-08-26T16:56:02.554Z,3.40
2022-08-26T16:58:31.932Z,3.53
2022-08-26T17:00:59.863Z,4.00
2022-08-26T17:03:28.965Z,3.67
2022-08-26T17:05:56.938Z,3.70
2022-08-26T17:08:28.359Z,2.80
2022-08-26T17:10:57.077Z,3.20
2022-08-26T17:13:35.439Z,3.20
2022-08-26T17:16:07.718Z,3.17
2022-08-26T17:18:36.262Z,3.20
2022-08-26T17:21:05.809Z,3.40
2022-08-26T17:23:33.896Z,3.50
2022-08-26T17:26:01.938Z,3.70
2022-08-26T17:28:30.052Z,4.03
2022-08-26T17:30:58.390Z,3.80
2022-08-26T17:33:27.961Z,3.90
2022-08-26T17:35:56.445Z,3.40
2022-08-26T17:38:25.141Z,3.00
2022-08-26T17:40:53.502Z,2.83
2022-08-26T17:43:21.605Z,3.40
2022-08-26T17:45:49.620Z,3.20
2022-08-26T17:48:17.895Z,3.67
2022-08-26T17:50:49.726Z,3.70
2022-08-26T17:53:19.216Z,3.93
2022-08-26T17:55:47.628Z,3.47
2022-08-26T17:58:16.306Z,3.53
2022-08-26T18:00:45.595Z,3.77
2022-08-26T18:03:13.748Z,3.20
2022-08-26T18:05:42.540Z,3.33
2022-08-26T18:08:11.893Z,3.47
2022-08-26T18:10:41.721Z,3.60
2022-08-26T18:13:09.954Z,3.50
2022-08-26T18:15:40.057Z,2.90
2022-08-26T18:18:08.141Z,3.40
2022-08-26T18:20:38.119Z,3.50
2022-08-26T18:23:06.322Z,3.00
2022-08-26T18:25:36.163Z,3.30
2022-08-26T18:28:04.678Z,3.33
2022-08-26T18:30:32.681Z,3.30
2022-08-26T18:33:00.973Z,3.43
2022-08-26T18:35:29.888Z,3.33
2022-08-26T18:38:00.860Z,3.40
2022-08-26T18:40:33.261Z,3.23
2022-08-26T18:43:02.599Z,3.50
2022-08-26T18:45:30.665Z,3.20
2022-08-26T18:47:58.623Z,3.10
2022-08-26T18:50:26.595Z,3.30
2022-08-26T18:52:54.810Z,3.63
2022-08-26T18:55:22.916Z,3.27
2022-08-26T18:57:50.904Z,3.43
2022-08-26T19:00:20.536Z,3.10
2022-08-26T19:02:52.086Z,3.77
2022-08-26T19:05:25.664Z,3.23
2022-08-26T19:07:53.698Z,3.50
2022-08-26T19:10:21.651Z,3.43
2022-08-26T19:12:51.939Z,3.40
2022-08-26T19:15:21.829Z,3.90
2022-08-26T19:17:50.273Z,3.37
2022-08-26T19:20:18.424Z,3.47
2022-08-26T19:22:46.514Z,3.23
2022-08-26T19:25:14.608Z,3.23
2022-08-26T19:27:42.561Z,3.27
2022-08-26T19:30:11.375Z,3.33
2022-08-26T19:32:40.887Z,3.53
2022-08-26T19:35:09.941Z,2.90
2022-08-26T19:37:38.272Z,3.07
2022-08-26T19:40:07.707Z,3.47
2022-08-26T19:42:35.783Z,3.30
2022-08-26T19:45:11.056Z,3.20
2022-08-26T19:47:54.530Z,3.30
2022-08-26T19:50:23.051Z,3.27
2022-08-26T19:52:51.304Z,3.30
2022-08-26T19:55:20.711Z,3.27
2022-08-26T19:57:48.976Z,3.83
2022-08-26T20:00:23.506Z,3.53
2022-08-26T20:02:52.267Z,3.60
2022-08-26T20:05:23.420Z,3.10
2022-08-26T20:07:52.059Z,3.10
2022-08-26T20:10:22.706Z,3.90
2022-08-26T20:12:52.203Z,3.37
2022-08-26T20:15:21.221Z,3.20
2022-08-26T20:17:50.028Z,3.23
2022-08-26T20:20:35.268Z,3.17
2022-08-26T20:23:05.141Z,3.17
2022-08-26T20:25:34.063Z,3.70
2022-08-26T20:28:02.576Z,3.30
2022-08-26T20:30:30.794Z,3.27
2022-08-26T20:32:58.825Z,8.90
2022-08-26T20:35:27.371Z,17.17
2022-08-26T20:37:55.362Z,6.50
2022-08-26T20:40:24.951Z,4.17
2022-08-26T20:42:53.047Z,3.30
2022-08-26T20:45:21.060Z,3.37
2022-08-26T20:47:49.248Z,3.80
2022-08-26T20:50:17.237Z,3.47
2022-08-26T20:52:46.335Z,3.83
2022-08-26T20:55:14.363Z,10.40
2022-08-26T20:57:43.715Z,7.50
2022-08-26T21:00:14.127Z,3.70
2022-08-26T21:02:43.182Z,3.67
2022-08-26T21:05:11.321Z,3.47
2022-08-26T21:07:39.388Z,3.50
2022-08-26T21:10:07.959Z,3.60
2022-08-26T21:12:36.123Z,3.90
2022-08-26T21:15:07.385Z,3.50
2022-08-26T21:17:36.515Z,3.83
2022-08-26T21:20:05.313Z,3.83
2022-08-26T21:22:33.324Z,3.60
2022-08-26T21:25:01.565Z,3.40
2022-08-26T21:27:29.586Z,3.40
2022-08-26T21:29:57.846Z,3.60
2022-08-26T21:32:27.330Z,3.50
2022-08-26T21:34:56.849Z,3.60
2022-08-26T21:37:25.463Z,3.40
2022-08-26T21:39:55.271Z,3.27
2022-08-26T21:42:24.128Z,3.40
2022-08-26T21:44:53.315Z,3.80
2022-08-26T21:47:21.993Z,7.47
2022-08-26T21:49:51.584Z,4.40
2022-08-26T21:52:19.646Z,3.43
2022-08-26T21:54:49.657Z,3.80
2022-08-26T21:57:18.377Z,3.73
2022-08-26T21:59:46.345Z,3.67
2022-08-26T22:02:14.909Z,3.90
2022-08-26T22:04:46.829Z,3.57
2022-08-26T22:07:19.089Z,3.60
2022-08-26T22:09:47.336Z,3.50
2022-08-26T22:12:18.016Z,3.10
2022-08-26T22:14:46.985Z,3.70
2022-08-26T22:17:16.969Z,3.07
2022-08-26T22:19:46.168Z,3.47
2022-08-26T22:22:15.640Z,3.37
2022-08-26T22:24:44.982Z,3.50
2022-08-26T22:27:13.829Z,4.03
2022-08-26T22:29:42.062Z,3.33
2022-08-26T22:32:11.029Z,3.23
2022-08-26T22:34:39.074Z,3.37
2022-08-26T22:37:07.104Z,3.57
2022-08-26T22:39:35.062Z,3.60
2022-08-26T22:42:05.405Z,3.90
2022-08-26T22:44:36.314Z,3.50
2022-08-26T22:47:04.348Z,4.00
2022-08-26T22:49:32.314Z,3.83
2022-08-26T22:52:00.255Z,3.87
2022-08-26T22:54:28.232Z,3.67
2022-08-26T22:56:56.468Z,3.77
2022-08-26T22:59:25.859Z,4.00
2022-08-26T23:01:53.817Z,3.60
2022-08-26T23:04:21.894Z,4.37
2022-08-26T23:06:50.134Z,3.40
2022-08-26T23:09:19.511Z,4.17
2022-08-26T23:11:48.623Z,4.00
2022-08-26T23:14:17.436Z,3.83
2022-08-26T23:16:47.304Z,4.57
2022-08-26T23:19:16.554Z,4.10
2022-08-26T23:21:44.873Z,4.17
2022-08-26T23:24:13.299Z,4.83
2022-08-26T23:26:42.611Z,3.90
2022-08-26T23:29:12.394Z,4.47
2022-08-26T23:31:42.544Z,4.50
2022-08-26T23:34:30.444Z,4.27
2022-08-26T23:36:58.915Z,4.73
2022-08-26T23:39:27.433Z,4.53
2022-08-26T23:41:56.984Z,4.63
2022-08-26T23:44:26.404Z,4.60
2022-08-26T23:46:54.388Z,4.70
2022-08-26T23:49:24.207Z,5.03
2022-08-26T23:52:10.491Z,4.93
2022-08-26T23:54:39.001Z,5.27
2022-08-26T23:57:07.511Z,5.23
2022-08-26T23:59:35.556Z,5.67
